Time;durP1;ratioP1;P1;durP2;ratioP2;P2;SDS_P1;SDS_P2;PMS_P1;PMS_P2;Temp;Humidity;BMP_temperature;BMP_pressure;BME280_temperature;BME280_humidity;BME280_pressure;Samples;Min_cycle;Max_cycle;Signal;HPM_P1;HPM_P2
2021/04/04 00:02:32;;;;;;;5.17;2.37;;;;;;;;;;6117196;23;20174;-92
2021/04/04 00:05:36;;;;;;;5.33;2.23;;;;;;;;;;6116091;23;20204;-91
2021/04/04 00:08:40;;;;;;;5.63;2.13;;;;;;;;;;6115877;23;20564;-89
2021/04/04 00:11:46;;;;;;;6.90;2.23;;;;;;;;;;6116471;23;20229;-90
2021/04/04 00:14:51;;;;;;;8.40;2.50;;;;;;;;;;6115098;23;20196;-88
2021/04/04 00:17:55;;;;;;;6.93;2.80;;;;;;;;;;6116163;23;20173;-89
2021/04/04 00:21:00;;;;;;;5.40;2.20;;;;;;;;;;6116097;23;20668;-90
2021/04/04 00:24:05;;;;;;;8.47;2.00;;;;;;;;;;6116103;23;20519;-89
2021/04/04 00:27:10;;;;;;;6.53;2.40;;;;;;;;;;6114980;23;20570;-85
2021/04/04 00:30:16;;;;;;;6.87;2.40;;;;;;;;;;6116197;23;20173;-90
2021/04/04 00:33:21;;;;;;;4.27;2.30;;;;;;;;;;6115444;23;20185;-90
2021/04/04 00:36:26;;;;;;;6.37;2.67;;;;;;;;;;6116334;23;20170;-88
2021/04/04 00:39:32;;;;;;;4.70;2.03;;;;;;;;;;6116060;23;20173;-89
2021/04/04 00:42:38;;;;;;;5.57;2.47;;;;;;;;;;6116244;23;20201;-87
2021/04/04 00:45:42;;;;;;;8.97;2.23;;;;;;;;;;6116852;23;20192;-90
2021/04/04 00:48:47;;;;;;;4.57;2.30;;;;;;;;;;6116192;23;20173;-88
2021/04/04 00:51:53;;;;;;;5.77;2.80;;;;;;;;;;6134496;23;20177;-88
2021/04/04 00:54:58;;;;;;;6.70;2.50;;;;;;;;;;6116282;23;20217;-89
2021/04/04 00:58:04;;;;;;;6.37;2.50;;;;;;;;;;6117192;23;20300;-89
2021/04/04 01:01:09;;;;;;;6.00;2.30;;;;;;;;;;6117597;23;20629;-88
2021/04/04 01:04:13;;;;;;;8.30;2.30;;;;;;;;;;6117391;23;20238;-91
2021/04/04 01:07:18;;;;;;;4.93;2.20;;;;;;;;;;6118458;23;20173;-89
2021/04/04 01:10:23;;;;;;;8.53;2.53;;;;;;;;;;6118427;23;20221;-92
2021/04/04 01:13:34;;;;;;;6.90;2.47;;;;;;;;;;6116716;23;20216;-88
2021/04/04 01:16:39;;;;;;;4.43;1.87;;;;;;;;;;6115590;23;20240;-88
2021/04/04 01:19:52;;;;;;;6.27;2.30;;;;;;;;;;6116987;23;20173;-90
2021/04/04 01:23:11;;;;;;;5.33;2.37;;;;;;;;;;6118750;23;20168;-87
2021/04/04 01:26:20;;;;;;;8.53;2.57;;;;;;;;;;6094104;23;20188;-90
2021/04/04 01:29:27;;;;;;;5.63;2.57;;;;;;;;;;6117599;23;20257;-90
2021/04/04 01:32:32;;;;;;;9.27;2.53;;;;;;;;;;6118282;23;20304;-90
2021/04/04 01:35:37;;;;;;;8.17;2.50;;;;;;;;;;6113937;23;20244;-90
2021/04/04 01:38:43;;;;;;;6.07;2.50;;;;;;;;;;6117303;23;20178;-90
2021/04/04 01:41:49;;;;;;;11.03;2.90;;;;;;;;;;6117414;23;20197;-89
2021/04/04 01:44:55;;;;;;;6.13;2.70;;;;;;;;;;6118119;23;20240;-89
2021/04/04 01:48:00;;;;;;;8.47;2.63;;;;;;;;;;6117700;23;20566;-89
2021/04/04 01:51:04;;;;;;;5.83;2.90;;;;;;;;;;6118054;23;20181;-89
2021/04/04 01:54:10;;;;;;;7.30;3.00;;;;;;;;;;6115983;23;20312;-89
2021/04/04 01:57:14;;;;;;;5.67;2.50;;;;;;;;;;6117686;23;20194;-88
2021/04/04 02:00:23;;;;;;;7.60;2.90;;;;;;;;;;6117677;23;20555;-89
2021/04/04 02:03:28;;;;;;;8.57;2.80;;;;;;;;;;6116293;23;20189;-89
2021/04/04 02:06:33;;;;;;;7.37;2.67;;;;;;;;;;6118225;23;20278;-89
2021/04/04 02:09:39;;;;;;;5.67;2.73;;;;;;;;;;6117273;23;20305;-89
2021/04/04 02:12:44;;;;;;;7.30;3.00;;;;;;;;;;6116950;23;20174;-89
2021/04/04 02:15:50;;;;;;;7.57;3.10;;;;;;;;;;6116983;23;20197;-91
2021/04/04 02:18:54;;;;;;;5.87;2.87;;;;;;;;;;6117886;23;20176;-90
2021/04/04 02:22:00;;;;;;;7.17;2.97;;;;;;;;;;6117393;23;20168;-88
2021/04/04 02:25:04;;;;;;;5.93;2.83;;;;;;;;;;6118130;23;20242;-91
2021/04/04 02:28:09;;;;;;;7.43;2.60;;;;;;;;;;6119285;23;20166;-90
2021/04/04 02:31:16;;;;;;;11.00;2.73;;;;;;;;;;6120615;23;20173;-92
2021/04/04 02:34:22;;;;;;;9.80;2.93;;;;;;;;;;6120529;23;20200;-91
2021/04/04 02:37:26;;;;;;;9.80;3.23;;;;;;;;;;6121124;23;20294;-94
2021/04/04 02:40:32;;;;;;;6.53;2.97;;;;;;;;;;6120677;23;20241;-91
2021/04/04 02:43:38;;;;;;;9.47;2.93;;;;;;;;;;6119358;23;20168;-91
2021/04/04 02:46:49;;;;;;;7.43;2.70;;;;;;;;;;6118574;23;20232;-89
2021/04/04 02:49:54;;;;;;;8.00;2.90;;;;;;;;;;6120704;23;20551;-92
2021/04/04 02:53:00;;;;;;;4.67;2.67;;;;;;;;;;6120501;23;20220;-91
2021/04/04 02:56:06;;;;;;;8.43;3.00;;;;;;;;;;6119892;23;20169;-89
2021/04/04 02:59:14;;;;;;;7.57;2.50;;;;;;;;;;6120154;23;20252;-91
2021/04/04 03:02:20;;;;;;;7.80;3.03;;;;;;;;;;6120074;23;20193;-91
2021/04/04 03:05:27;;;;;;;12.83;2.73;;;;;;;;;;6118691;23;20170;-90
2021/04/04 03:08:31;;;;;;;6.87;2.87;;;;;;;;;;6119454;23;20185;-91
2021/04/04 03:11:37;;;;;;;6.17;3.20;;;;;;;;;;6120392;23;20169;-90
2021/04/04 03:14:42;;;;;;;5.80;3.00;;;;;;;;;;6120546;23;20196;-90
2021/04/04 03:17:50;;;;;;;6.80;2.87;;;;;;;;;;6137944;23;20217;-89
2021/04/04 03:20:55;;;;;;;6.80;2.97;;;;;;;;;;6116830;23;20176;-90
2021/04/04 03:24:03;;;;;;;5.83;2.93;;;;;;;;;;6117348;23;20157;-90
2021/04/04 03:27:08;;;;;;;7.63;3.10;;;;;;;;;;6117161;23;20197;-90
2021/04/04 03:30:35;;;;;;;7.47;3.37;;;;;;;;;;6117072;23;20206;-91
2021/04/04 03:33:39;;;;;;;6.87;3.00;;;;;;;;;;6115043;23;20552;-87
2021/04/04 03:36:44;;;;;;;6.70;3.20;;;;;;;;;;6114277;23;20200;-92
2021/04/04 03:39:48;;;;;;;9.87;3.00;;;;;;;;;;6116693;23;20174;-89
2021/04/04 03:42:53;;;;;;;8.03;2.80;;;;;;;;;;6116403;23;20245;-91
2021/04/04 03:45:59;;;;;;;8.20;3.17;;;;;;;;;;6116260;23;20185;-91
2021/04/04 03:49:04;;;;;;;5.47;2.80;;;;;;;;;;6120283;23;20173;-89
2021/04/04 03:52:09;;;;;;;11.43;3.33;;;;;;;;;;6119598;23;20561;-88
2021/04/04 03:55:14;;;;;;;7.83;3.23;;;;;;;;;;6117509;23;20765;-89
2021/04/04 03:58:21;;;;;;;6.43;2.87;;;;;;;;;;6118281;23;20173;-91
2021/04/04 04:01:38;;;;;;;7.60;3.20;;;;;;;;;;6118604;23;20209;-92
2021/04/04 04:04:44;;;;;;;9.57;3.03;;;;;;;;;;6117993;23;20244;-91
2021/04/04 04:07:49;;;;;;;6.50;2.77;;;;;;;;;;6116968;23;20217;-91
2021/04/04 04:10:54;;;;;;;8.03;2.90;;;;;;;;;;6115172;23;20173;-89
2021/04/04 04:14:00;;;;;;;6.80;2.87;;;;;;;;;;6115804;23;20181;-90
2021/04/04 04:17:06;;;;;;;8.30;2.80;;;;;;;;;;6115990;23;20174;-90
2021/04/04 04:20:14;;;;;;;11.07;3.37;;;;;;;;;;6117859;23;20172;-92
2021/04/04 04:23:20;;;;;;;7.47;3.27;;;;;;;;;;6118041;23;20177;-88
2021/04/04 04:26:24;;;;;;;7.03;3.10;;;;;;;;;;6117420;23;20189;-90
2021/04/04 04:29:30;;;;;;;8.37;2.90;;;;;;;;;;6118553;23;20160;-88
2021/04/04 04:32:36;;;;;;;9.93;2.80;;;;;;;;;;6122416;23;20198;-90
2021/04/04 04:35:43;;;;;;;12.20;3.47;;;;;;;;;;6121172;23;20224;-90
2021/04/04 04:38:47;;;;;;;11.90;4.67;;;;;;;;;;6122005;23;20186;-88
2021/04/04 04:41:53;;;;;;;6.73;3.50;;;;;;;;;;6121288;23;20227;-90
2021/04/04 04:44:57;;;;;;;9.53;3.43;;;;;;;;;;6119357;23;20570;-91
2021/04/04 04:48:03;;;;;;;11.30;3.47;;;;;;;;;;6121076;23;20168;-91
2021/04/04 04:51:09;;;;;;;9.30;3.73;;;;;;;;;;6119952;23;20173;-90
2021/04/04 04:54:13;;;;;;;14.00;3.20;;;;;;;;;;6119552;23;20208;-91
2021/04/04 04:57:19;;;;;;;8.17;3.20;;;;;;;;;;6121145;23;20169;-89
2021/04/04 05:00:24;;;;;;;10.87;3.17;;;;;;;;;;6121199;23;20624;-89
2021/04/04 05:03:28;;;;;;;9.37;3.00;;;;;;;;;;6120768;23;20237;-90
2021/04/04 05:06:34;;;;;;;8.00;3.63;;;;;;;;;;6121659;23;20178;-90
2021/04/04 05:09:41;;;;;;;11.43;3.33;;;;;;;;;;6121422;23;20629;-90
2021/04/04 05:12:47;;;;;;;9.27;3.17;;;;;;;;;;6121023;23;20232;-89
2021/04/04 05:15:52;;;;;;;6.63;2.77;;;;;;;;;;6120924;23;20765;-92
2021/04/04 05:18:57;;;;;;;7.13;3.27;;;;;;;;;;6120620;23;20173;-90
2021/04/04 05:22:03;;;;;;;5.77;3.30;;;;;;;;;;6119784;23;20197;-89
2021/04/04 05:25:08;;;;;;;5.57;3.10;;;;;;;;;;6121212;23;20195;-89
2021/04/04 05:28:13;;;;;;;7.77;3.23;;;;;;;;;;6121814;23;20648;-92
2021/04/04 05:31:17;;;;;;;11.07;3.50;;;;;;;;;;6120696;23;20218;-90
2021/04/04 05:34:23;;;;;;;9.60;2.97;;;;;;;;;;6119253;23;20249;-90
2021/04/04 05:37:29;;;;;;;9.17;3.63;;;;;;;;;;6119721;23;20213;-90
2021/04/04 05:40:34;;;;;;;9.33;3.60;;;;;;;;;;6119678;23;20238;-92
2021/04/04 05:43:38;;;;;;;9.93;3.50;;;;;;;;;;6121085;23;20214;-92
2021/04/04 05:46:45;;;;;;;9.07;3.20;;;;;;;;;;6120764;23;20165;-92
2021/04/04 05:49:58;;;;;;;7.07;2.90;;;;;;;;;;6120418;23;20216;-88
2021/04/04 05:53:06;;;;;;;10.27;3.47;;;;;;;;;;6122168;23;20173;-95
2021/04/04 05:56:16;;;;;;;6.40;3.10;;;;;;;;;;6120608;23;20274;-92
2021/04/04 05:59:24;;;;;;;6.47;2.83;;;;;;;;;;6123046;23;20641;-91
2021/04/04 06:02:43;;;;;;;6.87;2.93;;;;;;;;;;6120429;23;20249;-89
2021/04/04 06:05:59;;;;;;;7.37;3.00;;;;;;;;;;6121495;23;20185;-92
2021/04/04 06:09:27;;;;;;;8.43;3.40;;;;;;;;;;6120832;23;20177;-90
2021/04/04 06:12:53;;;;;;;10.03;3.47;;;;;;;;;;6121349;23;20210;-91
2021/04/04 06:16:03;;;;;;;7.33;2.97;;;;;;;;;;6120534;23;20225;-91
2021/04/04 06:19:17;;;;;;;8.50;3.03;;;;;;;;;;6119089;23;20166;-92
2021/04/04 06:22:25;;;;;;;7.23;2.83;;;;;;;;;;6117579;23;20250;-90
2021/04/04 06:25:36;;;;;;;5.17;2.50;;;;;;;;;;6119431;23;20157;-91
2021/04/04 06:28:44;;;;;;;8.70;3.13;;;;;;;;;;6118637;23;20174;-89
2021/04/04 06:31:54;;;;;;;6.57;2.87;;;;;;;;;;6118801;23;20173;-90
2021/04/04 06:35:02;;;;;;;6.23;3.20;;;;;;;;;;6119221;23;20209;-92
2021/04/04 06:38:30;;;;;;;10.32;2.38;;;;;;;;;;6118444;23;20185;-90
2021/04/04 06:41:48;;;;;;;6.15;2.55;;;;;;;;;;6118376;23;20177;-93
2021/04/04 06:44:56;;;;;;;6.67;2.63;;;;;;;;;;6120764;23;20197;-93
2021/04/04 06:48:11;;;;;;;7.77;2.60;;;;;;;;;;6120318;23;20215;-92
2021/04/04 06:51:22;;;;;;;6.93;2.77;;;;;;;;;;6119857;23;20173;-91
2021/04/04 06:54:33;;;;;;;6.43;2.60;;;;;;;;;;6119230;23;20237;-89
2021/04/04 06:58:03;;;;;;;5.32;2.50;;;;;;;;;;6120508;23;20620;-90
2021/04/04 07:01:11;;;;;;;4.67;2.43;;;;;;;;;;6121472;23;20217;-93
2021/04/04 07:04:18;;;;;;;5.53;2.47;;;;;;;;;;6120405;23;20153;-91
2021/04/04 07:07:30;;;;;;;8.70;2.97;;;;;;;;;;6120864;23;20202;-92
2021/04/04 07:10:42;;;;;;;7.82;2.80;;;;;;;;;;6119278;23;20217;-92
2021/04/04 07:14:08;;;;;;;7.43;2.70;;;;;;;;;;6120682;23;20674;-93
2021/04/04 07:55:27;;;;;;;5.38;2.28;;;;;;;;;;6057597;23;20242;-91
2021/04/04 07:58:36;;;;;;;4.45;1.92;;;;;;;;;;6108678;23;20210;-92
2021/04/04 08:01:42;;;;;;;6.07;2.00;;;;;;;;;;6108487;23;20166;-91
2021/04/04 08:04:49;;;;;;;7.45;2.22;;;;;;;;;;6110055;23;20169;-91
2021/04/04 08:07:57;;;;;;;11.43;2.00;;;;;;;;;;6110735;23;20178;-91
2021/04/04 08:11:07;;;;;;;5.85;2.42;;;;;;;;;;6110811;23;20206;-92
2021/04/04 08:14:15;;;;;;;7.95;2.00;;;;;;;;;;6112142;23;20181;-93
2021/04/04 08:17:20;;;;;;;3.42;1.90;;;;;;;;;;6110891;23;20174;-92
2021/04/04 08:20:26;;;;;;;3.60;1.90;;;;;;;;;;6111035;23;20186;-91
2021/04/04 08:23:34;;;;;;;3.50;1.70;;;;;;;;;;6110988;23;20181;-89
2021/04/04 08:26:44;;;;;;;5.63;1.83;;;;;;;;;;6112071;23;20169;-92
2021/04/04 08:29:51;;;;;;;6.82;1.67;;;;;;;;;;6110885;23;20185;-90
2021/04/04 08:32:59;;;;;;;4.55;1.75;;;;;;;;;;6108157;23;20174;-90
2021/04/04 08:36:04;;;;;;;4.93;2.00;;;;;;;;;;6105937;23;20289;-90
2021/04/04 08:39:10;;;;;;;4.95;2.05;;;;;;;;;;6106243;23;20191;-88
2021/04/04 08:42:17;;;;;;;6.03;1.80;;;;;;;;;;6108762;23;20165;-91
2021/04/04 08:45:24;;;;;;;5.43;1.88;;;;;;;;;;6108373;23;20522;-90
2021/04/04 08:48:29;;;;;;;2.10;1.20;;;;;;;;;;6109374;23;20174;-90
2021/04/04 08:51:37;;;;;;;4.95;1.60;;;;;;;;;;6108386;23;20246;-88
2021/04/04 08:54:44;;;;;;;3.45;1.58;;;;;;;;;;6108011;23;20234;-91
2021/04/04 08:57:50;;;;;;;5.93;1.80;;;;;;;;;;6108631;23;20154;-90
2021/04/04 09:00:57;;;;;;;5.40;1.52;;;;;;;;;;6107841;23;20190;-90
2021/04/04 09:04:03;;;;;;;4.22;1.70;;;;;;;;;;6109247;23;20229;-90
2021/04/04 09:07:08;;;;;;;9.48;1.70;;;;;;;;;;6106735;23;20172;-91
2021/04/04 09:10:14;;;;;;;2.88;1.50;;;;;;;;;;6107668;23;20165;-89
2021/04/04 09:13:20;;;;;;;10.40;2.38;;;;;;;;;;6110337;23;20173;-91
2021/04/04 09:16:24;;;;;;;5.18;2.13;;;;;;;;;;6106380;23;20247;-89
2021/04/04 09:19:29;;;;;;;3.65;1.95;;;;;;;;;;6107816;23;20169;-90
2021/04/04 09:22:36;;;;;;;3.13;1.60;;;;;;;;;;6107113;23;20221;-88
2021/04/04 09:25:48;;;;;;;5.15;1.45;;;;;;;;;;6107449;23;20222;-90
2021/04/04 09:28:54;;;;;;;4.93;1.45;;;;;;;;;;6107484;23;20202;-89
2021/04/04 09:31:59;;;;;;;3.83;1.60;;;;;;;;;;6108256;23;20174;-90
2021/04/04 09:35:05;;;;;;;3.45;1.67;;;;;;;;;;6107835;23;20249;-90
2021/04/04 09:38:13;;;;;;;6.03;1.40;;;;;;;;;;6107479;23;20174;-91
2021/04/04 09:41:18;;;;;;;3.75;1.77;;;;;;;;;;6108377;23;20259;-89
2021/04/04 09:44:30;;;;;;;4.70;1.70;;;;;;;;;;6108031;23;20179;-91
2021/04/04 09:47:35;;;;;;;4.60;1.40;;;;;;;;;;6107794;23;20189;-91
2021/04/04 09:50:39;;;;;;;2.72;1.30;;;;;;;;;;6107811;23;20161;-92
2021/04/04 09:53:45;;;;;;;4.70;1.40;;;;;;;;;;6107912;23;20170;-90
2021/04/04 09:56:57;;;;;;;2.97;1.40;;;;;;;;;;6108037;23;20199;-89
2021/04/04 10:00:02;;;;;;;4.07;1.55;;;;;;;;;;6109587;23;20158;-89
2021/04/04 10:03:13;;;;;;;2.75;1.30;;;;;;;;;;6110115;23;20173;-89
2021/04/04 10:06:17;;;;;;;3.13;1.50;;;;;;;;;;6107248;23;20197;-89
2021/04/04 10:09:21;;;;;;;5.32;1.42;;;;;;;;;;6107648;23;20154;-91
2021/04/04 10:12:26;;;;;;;2.78;1.40;;;;;;;;;;6108878;23;20202;-89
2021/04/04 10:15:38;;;;;;;3.08;1.38;;;;;;;;;;6109355;23;20173;-92
2021/04/04 10:18:59;;;;;;;4.32;1.55;;;;;;;;;;6109754;23;20170;-90
2021/04/04 10:22:04;;;;;;;3.10;1.50;;;;;;;;;;6108815;23;20182;-90
2021/04/04 10:25:08;;;;;;;3.45;1.40;;;;;;;;;;6109428;23;20245;-90
2021/04/04 10:28:13;;;;;;;4.63;1.50;;;;;;;;;;6111260;23;20202;-89
2021/04/04 10:31:19;;;;;;;5.47;2.53;;;;;;;;;;6109222;23;20245;-89
2021/04/04 10:34:24;;;;;;;3.88;1.98;;;;;;;;;;6110504;23;20174;-89
2021/04/04 10:37:31;;;;;;;4.72;1.45;;;;;;;;;;6106900;23;20276;-91
2021/04/04 10:40:48;;;;;;;2.78;1.30;;;;;;;;;;6109785;23;20170;-92
2021/04/04 10:44:00;;;;;;;2.38;1.23;;;;;;;;;;6108493;23;20162;-91
2021/04/04 10:47:18;;;;;;;4.60;1.30;;;;;;;;;;6107978;23;20218;-91
2021/04/04 10:50:22;;;;;;;7.22;2.00;;;;;;;;;;6107612;23;20181;-89
2021/04/04 10:53:27;;;;;;;2.05;1.20;;;;;;;;;;6108541;23;20170;-91
2021/04/04 10:56:34;;;;;;;2.97;1.20;;;;;;;;;;6105765;23;20262;-90
2021/04/04 10:59:39;;;;;;;2.08;1.30;;;;;;;;;;6108885;23;20149;-91
2021/04/04 11:02:44;;;;;;;2.67;1.38;;;;;;;;;;6108480;23;20174;-89
2021/04/04 11:05:51;;;;;;;4.43;1.20;;;;;;;;;;6109941;23;20227;-89
2021/04/04 11:08:55;;;;;;;5.53;1.50;;;;;;;;;;6107322;23;20266;-92
2021/04/04 11:12:01;;;;;;;3.20;1.40;;;;;;;;;;6109282;23;20212;-90
2021/04/04 11:15:08;;;;;;;2.60;1.45;;;;;;;;;;6109484;23;20207;-92
2021/04/04 11:18:15;;;;;;;3.60;1.33;;;;;;;;;;6107767;23;20214;-92
2021/04/04 11:21:21;;;;;;;2.35;1.27;;;;;;;;;;6108257;23;20194;-91
2021/04/04 11:24:27;;;;;;;2.08;1.27;;;;;;;;;;6105783;23;20173;-90
2021/04/04 11:27:42;;;;;;;3.85;1.40;;;;;;;;;;6108186;23;20158;-89
2021/04/04 11:30:48;;;;;;;4.80;1.70;;;;;;;;;;6108063;23;20234;-89
2021/04/04 11:34:13;;;;;;;4.15;1.70;;;;;;;;;;6108136;23;20177;-91
2021/04/04 11:37:36;;;;;;;4.22;1.70;;;;;;;;;;6110261;23;20267;-89
2021/04/04 11:40:41;;;;;;;4.47;1.60;;;;;;;;;;6107926;23;20166;-86
2021/04/04 11:43:46;;;;;;;3.88;1.40;;;;;;;;;;6109350;23;20171;-89
2021/04/04 11:46:53;;;;;;;7.65;1.83;;;;;;;;;;6108557;23;20189;-88
2021/04/04 11:49:58;;;;;;;3.00;1.80;;;;;;;;;;6109208;23;20190;-90
2021/04/04 11:53:03;;;;;;;3.13;1.38;;;;;;;;;;6108449;23;20169;-91
2021/04/04 11:56:08;;;;;;;2.65;1.60;;;;;;;;;;6107958;23;20197;-91
2021/04/04 11:59:13;;;;;;;2.83;1.40;;;;;;;;;;6109577;23;20174;-93
2021/04/04 12:02:19;;;;;;;2.78;1.25;;;;;;;;;;6109015;23;20254;-89
2021/04/04 12:05:24;;;;;;;3.60;1.73;;;;;;;;;;6108145;23;20201;-91
2021/04/04 12:08:29;;;;;;;3.72;1.98;;;;;;;;;;6108384;23;20207;-92
2021/04/04 12:11:34;;;;;;;3.65;1.40;;;;;;;;;;6108283;23;20174;-89
2021/04/04 12:14:51;;;;;;;3.50;1.55;;;;;;;;;;6107053;23;20209;-89
2021/04/04 12:17:57;;;;;;;2.85;1.60;;;;;;;;;;6109318;23;20650;-92
2021/04/04 12:21:02;;;;;;;5.25;1.70;;;;;;;;;;6109982;23;20511;-92
2021/04/04 12:24:07;;;;;;;4.80;1.50;;;;;;;;;;6108622;23;20201;-91
2021/04/04 12:27:13;;;;;;;4.20;1.40;;;;;;;;;;6111082;23;20174;-89
2021/04/04 12:30:25;;;;;;;4.75;1.80;;;;;;;;;;6109970;23;20166;-91
2021/04/04 12:33:37;;;;;;;2.35;1.40;;;;;;;;;;6110321;23;20165;-91
2021/04/04 12:36:47;;;;;;;5.30;2.05;;;;;;;;;;6111963;23;20169;-92
2021/04/04 12:39:51;;;;;;;4.40;1.70;;;;;;;;;;6110314;23;20170;-89
2021/04/04 12:42:57;;;;;;;4.63;1.85;;;;;;;;;;6109779;23;20165;-90
2021/04/04 12:46:09;;;;;;;4.63;2.00;;;;;;;;;;6107694;23;20206;-91
2021/04/04 12:49:20;;;;;;;3.35;1.65;;;;;;;;;;6108839;23;20182;-92
2021/04/04 12:52:36;;;;;;;4.22;1.50;;;;;;;;;;6111286;23;20173;-90
2021/04/04 12:55:40;;;;;;;3.55;1.60;;;;;;;;;;6111498;23;20181;-90
2021/04/04 12:58:45;;;;;;;4.13;1.50;;;;;;;;;;6110874;23;20174;-91
2021/04/04 13:01:54;;;;;;;4.63;1.65;;;;;;;;;;6110649;23;20194;-90
2021/04/04 13:04:59;;;;;;;2.42;1.60;;;;;;;;;;6109040;23;20198;-89
2021/04/04 13:08:11;;;;;;;5.57;1.42;;;;;;;;;;6110528;23;20178;-92
2021/04/04 13:11:17;;;;;;;6.50;1.50;;;;;;;;;;6110003;23;20207;-92
2021/04/04 13:14:25;;;;;;;3.63;1.80;;;;;;;;;;6111475;23;20190;-92
2021/04/04 13:17:38;;;;;;;3.30;1.63;;;;;;;;;;6110756;23;20173;-93
2021/04/04 13:20:42;;;;;;;4.80;1.80;;;;;;;;;;6110217;23;20213;-91
2021/04/04 13:23:49;;;;;;;6.05;1.73;;;;;;;;;;6108772;23;20242;-89
2021/04/04 13:26:55;;;;;;;4.28;1.80;;;;;;;;;;6108841;23;20235;-91
2021/04/04 13:29:59;;;;;;;3.35;1.63;;;;;;;;;;6106977;23;20162;-91
2021/04/04 13:33:04;;;;;;;6.32;2.22;;;;;;;;;;6108211;23;20189;-92
2021/04/04 13:36:13;;;;;;;3.88;1.77;;;;;;;;;;6106656;23;20561;-90
2021/04/04 13:39:21;;;;;;;2.40;1.50;;;;;;;;;;6107877;23;20246;-89
2021/04/04 13:42:29;;;;;;;2.85;1.60;;;;;;;;;;6108061;23;20233;-92
2021/04/04 13:45:38;;;;;;;3.08;1.90;;;;;;;;;;6107526;23;20215;-91
2021/04/04 13:48:53;;;;;;;6.18;1.70;;;;;;;;;;6107303;23;20205;-91
2021/04/04 13:52:09;;;;;;;3.75;1.92;;;;;;;;;;6107813;23;20217;-91
2021/04/04 13:55:27;;;;;;;4.03;1.95;;;;;;;;;;6106201;23;20193;-90
2021/04/04 13:58:36;;;;;;;5.03;2.30;;;;;;;;;;6106575;23;20170;-91
2021/04/04 14:01:46;;;;;;;5.28;1.45;;;;;;;;;;6106873;23;20174;-91
2021/04/04 14:04:50;;;;;;;5.93;2.28;;;;;;;;;;6108247;23;20173;-90
2021/04/04 14:07:55;;;;;;;3.70;1.80;;;;;;;;;;6105455;23;20182;-89
2021/04/04 14:11:01;;;;;;;4.43;1.83;;;;;;;;;;6107186;23;20266;-90
2021/04/04 14:14:07;;;;;;;4.10;2.13;;;;;;;;;;6107874;23;20229;-92
2021/04/04 14:17:12;;;;;;;3.20;1.67;;;;;;;;;;6107515;23;20226;-92
2021/04/04 14:20:17;;;;;;;5.25;2.03;;;;;;;;;;6107000;23;20178;-89
2021/04/04 14:23:21;;;;;;;5.72;1.70;;;;;;;;;;6107587;23;20182;-91
2021/04/04 14:26:26;;;;;;;12.52;2.05;;;;;;;;;;6107125;23;20192;-89
2021/04/04 14:29:31;;;;;;;4.80;2.10;;;;;;;;;;6106973;23;20253;-90
2021/04/04 14:32:36;;;;;;;4.18;2.05;;;;;;;;;;6106090;23;20170;-90
2021/04/04 14:35:41;;;;;;;6.43;1.80;;;;;;;;;;6106599;23;20712;-93
2021/04/04 14:38:48;;;;;;;6.40;2.13;;;;;;;;;;6107570;23;20173;-89
2021/04/04 14:41:53;;;;;;;4.45;1.90;;;;;;;;;;6108051;23;20173;-90
2021/04/04 14:44:59;;;;;;;3.65;1.65;;;;;;;;;;6107315;23;20189;-88
2021/04/04 14:48:03;;;;;;;5.55;1.90;;;;;;;;;;6107365;23;20173;-90
2021/04/04 14:51:08;;;;;;;3.40;1.70;;;;;;;;;;6107063;23;20161;-91
2021/04/04 14:54:14;;;;;;;5.35;1.90;;;;;;;;;;6107083;23;20177;-90
2021/04/04 14:57:19;;;;;;;4.60;1.58;;;;;;;;;;6106830;23;20177;-89
2021/04/04 15:00:25;;;;;;;4.45;1.65;;;;;;;;;;6106961;23;20177;-89
2021/04/04 15:03:30;;;;;;;5.15;1.75;;;;;;;;;;6106732;23;20193;-90
2021/04/04 15:06:35;;;;;;;5.72;1.80;;;;;;;;;;6104700;23;20185;-90
2021/04/04 15:09:39;;;;;;;3.90;2.03;;;;;;;;;;6106806;23;20174;-90
2021/04/04 15:12:45;;;;;;;6.18;1.95;;;;;;;;;;6105588;23;20173;-90
2021/04/04 15:15:52;;;;;;;3.25;1.60;;;;;;;;;;6106638;23;20165;-91
2021/04/04 15:18:57;;;;;;;4.32;1.50;;;;;;;;;;6106923;23;20173;-92
2021/04/04 15:22:01;;;;;;;3.25;1.45;;;;;;;;;;6106763;23;20174;-90
2021/04/04 15:25:06;;;;;;;4.03;1.73;;;;;;;;;;6105199;23;20219;-90
2021/04/04 15:28:11;;;;;;;3.35;1.90;;;;;;;;;;6106166;23;20169;-90
2021/04/04 15:31:17;;;;;;;3.88;1.60;;;;;;;;;;6106932;23;20560;-91
2021/04/04 15:34:21;;;;;;;5.15;1.70;;;;;;;;;;6107294;23;20198;-90
2021/04/04 15:37:26;;;;;;;4.63;1.50;;;;;;;;;;6105361;23;20546;-90
2021/04/04 15:40:31;;;;;;;3.70;1.65;;;;;;;;;;6105991;23;20540;-89
2021/04/04 15:43:37;;;;;;;3.03;1.50;;;;;;;;;;6106203;23;20170;-90
2021/04/04 15:46:42;;;;;;;5.53;2.00;;;;;;;;;;6106199;23;20197;-91
2021/04/04 16:36:55;;;;;;;6.53;2.35;;;;;;;;;;6184300;22;1061315;-89
2021/04/04 16:40:00;;;;;;;6.30;2.60;;;;;;;;;;6185164;23;20167;-89
2021/04/04 16:43:06;;;;;;;7.68;3.15;;;;;;;;;;6187694;23;20167;-91
2021/04/04 16:46:11;;;;;;;7.10;2.95;;;;;;;;;;6185783;23;20215;-90
2021/04/04 16:49:15;;;;;;;5.60;2.78;;;;;;;;;;6187544;23;20199;-90
2021/04/04 16:52:21;;;;;;;6.90;2.67;;;;;;;;;;6187141;23;20190;-89
2021/04/04 16:55:27;;;;;;;5.10;2.38;;;;;;;;;;6185681;23;20167;-92
2021/04/04 16:58:32;;;;;;;5.07;1.92;;;;;;;;;;6187175;23;20167;-92
2021/04/04 17:01:37;;;;;;;5.10;2.33;;;;;;;;;;6180029;23;20216;-91
2021/04/04 17:04:42;;;;;;;3.35;1.88;;;;;;;;;;6178292;23;20183;-91
2021/04/04 17:07:48;;;;;;;7.25;2.30;;;;;;;;;;6179642;23;20254;-90
2021/04/04 17:10:52;;;;;;;5.20;1.90;;;;;;;;;;6179593;23;20176;-91
2021/04/04 17:13:57;;;;;;;6.05;2.38;;;;;;;;;;6179005;23;20214;-92
2021/04/04 17:17:01;;;;;;;8.50;2.20;;;;;;;;;;6178226;23;20296;-92
2021/04/04 17:20:09;;;;;;;7.38;2.50;;;;;;;;;;6181164;23;20163;-92
2021/04/04 17:23:14;;;;;;;7.50;2.13;;;;;;;;;;6178259;23;20239;-92
2021/04/04 17:26:20;;;;;;;7.78;2.50;;;;;;;;;;6180024;23;20171;-90
2021/04/04 17:29:25;;;;;;;11.23;2.75;;;;;;;;;;6179600;23;20220;-92
2021/04/04 17:32:30;;;;;;;4.65;1.90;;;;;;;;;;6181261;23;20175;-92
2021/04/04 17:35:37;;;;;;;5.40;2.47;;;;;;;;;;6181416;23;20223;-92
2021/04/04 17:38:43;;;;;;;4.55;2.22;;;;;;;;;;6180692;23;20582;-92
2021/04/04 17:41:47;;;;;;;8.85;2.80;;;;;;;;;;6178878;23;20174;-91
2021/04/04 17:44:51;;;;;;;6.15;2.60;;;;;;;;;;6179800;23;20259;-92
2021/04/04 17:47:56;;;;;;;6.30;2.30;;;;;;;;;;6180319;23;20172;-92
2021/04/04 17:51:00;;;;;;;11.90;3.08;;;;;;;;;;6179752;23;20163;-91
2021/04/04 17:54:06;;;;;;;9.32;3.17;;;;;;;;;;6179205;23;20172;-91
2021/04/04 17:57:10;;;;;;;7.78;2.25;;;;;;;;;;6181075;23;20527;-91
2021/04/04 18:00:16;;;;;;;7.90;2.67;;;;;;;;;;6180934;23;20186;-90
2021/04/04 18:03:23;;;;;;;6.97;2.47;;;;;;;;;;6180868;23;20168;-90
2021/04/04 18:06:32;;;;;;;11.97;3.53;;;;;;;;;;6181292;23;20219;-90
2021/04/04 18:13:00;;;;;;;15.50;5.43;;;;;;;;;;6180316;23;20180;-90
2021/04/04 18:16:06;;;;;;;20.20;6.67;;;;;;;;;;6179549;23;20179;-91
2021/04/04 18:19:11;;;;;;;12.47;4.77;;;;;;;;;;6181226;23;20208;-92
2021/04/04 18:22:15;;;;;;;11.10;5.37;;;;;;;;;;6179888;23;20189;-88
2021/04/04 18:25:20;;;;;;;14.30;4.97;;;;;;;;;;6179536;23;20156;-90
2021/04/04 18:28:25;;;;;;;17.80;5.43;;;;;;;;;;6184075;23;20224;-90
2021/04/04 18:31:30;;;;;;;24.67;10.97;;;;;;;;;;6183647;23;20185;-90
2021/04/04 18:34:35;;;;;;;22.30;5.57;;;;;;;;;;6182496;23;20172;-91
2021/04/04 18:37:41;;;;;;;19.40;5.77;;;;;;;;;;6168635;23;20263;-91
2021/04/04 18:40:48;;;;;;;14.83;4.90;;;;;;;;;;6170730;23;20173;-90
2021/04/04 18:43:53;;;;;;;16.43;4.00;;;;;;;;;;6171205;23;20164;-91
2021/04/04 18:46:57;;;;;;;14.20;4.50;;;;;;;;;;6169578;23;20229;-90
2021/04/04 18:50:03;;;;;;;11.57;4.13;;;;;;;;;;6168729;23;20225;-91
2021/04/04 18:53:08;;;;;;;14.90;4.30;;;;;;;;;;6169565;23;20176;-90
2021/04/04 18:56:13;;;;;;;8.53;3.90;;;;;;;;;;6169647;23;20193;-90
2021/04/04 18:59:18;;;;;;;12.33;4.10;;;;;;;;;;6171878;23;20242;-92
2021/04/04 19:02:23;;;;;;;10.57;3.83;;;;;;;;;;6172039;23;20240;-91
2021/04/04 19:05:27;;;;;;;17.37;5.60;;;;;;;;;;6172636;23;20168;-91
2021/04/04 19:08:33;;;;;;;13.30;4.67;;;;;;;;;;6172819;23;20215;-91
2021/04/04 19:11:39;;;;;;;23.13;6.40;;;;;;;;;;6170672;23;20173;-92
2021/04/04 19:14:44;;;;;;;22.93;6.60;;;;;;;;;;6169292;23;20212;-89
2021/04/04 19:17:49;;;;;;;28.30;7.13;;;;;;;;;;6168644;23;20508;-91
2021/04/04 19:20:55;;;;;;;13.37;4.63;;;;;;;;;;6169218;23;20157;-90
2021/04/04 19:23:59;;;;;;;13.87;4.27;;;;;;;;;;6170141;23;20220;-92
2021/04/04 19:27:05;;;;;;;11.30;3.80;;;;;;;;;;6168856;23;20171;-90
2021/04/04 19:30:11;;;;;;;17.67;5.03;;;;;;;;;;6169382;23;20292;-90
2021/04/04 19:33:15;;;;;;;8.60;4.03;;;;;;;;;;6171495;23;20160;-90
2021/04/04 19:36:21;;;;;;;8.80;3.53;;;;;;;;;;6179382;23;20893;-89
2021/04/04 19:39:25;;;;;;;10.53;3.17;;;;;;;;;;6184747;23;20168;-91
2021/04/04 19:42:32;;;;;;;8.03;3.47;;;;;;;;;;6182226;23;20553;-90
2021/04/04 19:45:37;;;;;;;8.23;3.60;;;;;;;;;;6183416;23;20155;-91
2021/04/04 19:48:43;;;;;;;7.30;3.20;;;;;;;;;;6182292;23;20275;-91
2021/04/04 19:51:48;;;;;;;8.87;4.20;;;;;;;;;;6182643;23;20252;-90
2021/04/04 19:54:56;;;;;;;10.63;4.10;;;;;;;;;;6181037;23;20236;-91
2021/04/04 19:58:01;;;;;;;15.07;4.57;;;;;;;;;;6180544;23;20172;-91
2021/04/04 20:01:06;;;;;;;13.50;4.40;;;;;;;;;;6181468;23;20167;-89
2021/04/04 20:04:12;;;;;;;7.57;3.93;;;;;;;;;;6180385;23;20315;-91
2021/04/04 20:07:16;;;;;;;8.63;3.67;;;;;;;;;;6180504;23;20164;-91